Time;durP1;ratioP1;P1;durP2;ratioP2;P2;SDS_P1;SDS_P2;PMS_P1;PMS_P2;Temp;Humidity;BMP_temperature;BMP_pressure;BME280_temperature;BME280_humidity;BME280_pressure;Samples;Min_cycle;Max_cycle;Signal;HPM_P1;HPM_P2
2022/07/12 00:00:54;;;;;;;2.67;2.45;;;16.20;99.90;;;;;;4996279;28;20046;-74
2022/07/12 00:03:19;;;;;;;2.88;2.67;;;16.10;99.90;;;;;;5008199;28;20041;-75
2022/07/12 00:05:45;;;;;;;2.60;2.40;;;16.10;99.90;;;;;;4976966;28;20125;-74
2022/07/12 00:08:10;;;;;;;2.58;2.20;;;16.10;99.90;;;;;;5008478;28;20096;-74
2022/07/12 00:10:36;;;;;;;2.60;2.40;;;16.10;99.90;;;;;;4996536;28;20041;-74
2022/07/12 00:13:03;;;;;;;2.47;2.28;;;16.00;99.90;;;;;;4996619;28;20464;-75
2022/07/12 00:15:29;;;;;;;3.00;2.70;;;16.00;99.90;;;;;;5008363;28;20062;-75
2022/07/12 00:17:54;;;;;;;3.05;2.30;;;16.00;99.90;;;;;;4992535;28;20042;-74
2022/07/12 00:20:20;;;;;;;3.20;3.00;;;16.00;99.90;;;;;;4996571;28;20495;-74
2022/07/12 00:22:46;;;;;;;4.13;3.83;;;16.00;99.90;;;;;;5018961;28;20153;-74
2022/07/12 00:25:12;;;;;;;4.15;3.30;;;15.90;99.90;;;;;;5012857;28;20042;-74
2022/07/12 00:27:38;;;;;;;2.92;2.72;;;15.90;99.90;;;;;;5015469;28;20074;-75
2022/07/12 00:30:05;;;;;;;3.00;2.80;;;15.90;99.90;;;;;;5046640;28;20029;-74
2022/07/12 00:32:31;;;;;;;4.00;3.38;;;15.90;99.90;;;;;;5025806;28;20085;-74
2022/07/12 00:34:56;;;;;;;3.38;3.10;;;15.90;99.90;;;;;;5009950;28;20476;-75
2022/07/12 00:37:22;;;;;;;3.35;2.95;;;15.90;99.90;;;;;;5018307;28;20041;-74
2022/07/12 00:39:48;;;;;;;3.58;3.25;;;15.90;99.90;;;;;;5029222;28;20119;-74
2022/07/12 00:42:13;;;;;;;4.03;3.72;;;15.90;99.90;;;;;;5029249;28;20051;-74
2022/07/12 00:44:39;;;;;;;4.78;4.38;;;15.90;99.90;;;;;;5021871;28;20057;-75
2022/07/12 00:47:05;;;;;;;3.67;3.38;;;15.90;99.90;;;;;;5020110;28;20037;-74
2022/07/12 00:49:31;;;;;;;3.65;3.35;;;15.90;99.90;;;;;;5013452;28;20036;-74
2022/07/12 00:51:57;;;;;;;3.30;3.00;;;15.90;99.90;;;;;;5031982;28;20037;-74
2022/07/12 00:54:23;;;;;;;4.05;3.72;;;15.90;99.90;;;;;;5011114;28;20042;-74
2022/07/12 00:56:49;;;;;;;3.25;3.05;;;15.90;99.90;;;;;;5032421;28;20051;-74
2022/07/12 00:59:15;;;;;;;4.10;3.70;;;15.80;99.90;;;;;;5026760;28;20095;-74
2022/07/12 01:01:42;;;;;;;4.60;4.20;;;15.80;99.90;;;;;;5033265;28;20127;-74
2022/07/12 01:04:08;;;;;;;4.30;3.90;;;15.70;99.90;;;;;;5030118;28;20041;-74
2022/07/12 01:06:35;;;;;;;4.05;3.47;;;15.70;99.90;;;;;;5030629;28;20049;-74
2022/07/12 01:09:01;;;;;;;4.05;3.75;;;15.70;99.90;;;;;;5037701;28;20033;-74
2022/07/12 01:11:28;;;;;;;4.18;3.78;;;15.70;99.90;;;;;;5032055;28;20517;-74
2022/07/12 01:13:54;;;;;;;4.50;4.10;;;15.80;99.90;;;;;;5035244;28;20049;-74
2022/07/12 01:16:21;;;;;;;4.30;4.00;;;15.70;99.90;;;;;;5031027;28;20455;-74
2022/07/12 01:18:46;;;;;;;5.07;4.57;;;15.60;99.90;;;;;;5032727;28;20048;-74
2022/07/12 01:21:21;;;;;;;5.65;5.15;;;15.60;99.90;;;;;;5022775;28;20045;-74
2022/07/12 01:23:47;;;;;;;5.32;4.85;;;15.50;99.90;;;;;;5032223;28;20068;-74
2022/07/12 01:26:12;;;;;;;5.35;4.78;;;15.50;99.90;;;;;;5033323;28;20468;-74
2022/07/12 01:28:38;;;;;;;5.88;5.38;;;15.50;99.90;;;;;;5030334;28;20069;-74
2022/07/12 01:31:05;;;;;;;6.30;5.75;;;15.50;99.90;;;;;;5036822;28;20064;-74
2022/07/12 01:33:30;;;;;;;6.13;5.53;;;15.50;99.90;;;;;;5026798;28;20085;-74
2022/07/12 01:35:57;;;;;;;5.78;5.28;;;15.50;99.90;;;;;;5032624;28;20092;-74
2022/07/12 01:38:22;;;;;;;5.80;5.20;;;15.50;99.90;;;;;;5031925;28;20052;-74
2022/07/12 01:40:48;;;;;;;5.30;4.80;;;15.50;99.90;;;;;;5032368;28;20045;-74
2022/07/12 01:43:14;;;;;;;5.63;5.10;;;15.60;99.90;;;;;;5032058;28;20487;-74
2022/07/12 01:45:41;;;;;;;6.03;5.53;;;15.50;99.90;;;;;;5030951;28;20049;-74
2022/07/12 01:48:07;;;;;;;5.22;4.65;;;15.50;99.90;;;;;;5019094;28;20052;-74
2022/07/12 01:50:33;;;;;;;5.10;4.60;;;15.50;99.90;;;;;;5024522;28;20034;-75
2022/07/12 01:53:00;;;;;;;4.57;4.18;;;15.40;99.90;;;;;;5026993;28;20030;-75
2022/07/12 01:55:26;;;;;;;4.32;4.00;;;15.50;99.90;;;;;;5029441;28;20055;-75
2022/07/12 01:57:52;;;;;;;4.70;4.30;;;15.50;99.90;;;;;;5029239;28;20041;-74
2022/07/12 02:00:19;;;;;;;5.55;5.13;;;15.60;99.90;;;;;;5028148;28;20037;-74
2022/07/12 02:02:46;;;;;;;6.60;6.00;;;15.70;99.90;;;;;;5025694;28;20041;-74
2022/07/12 02:05:12;;;;;;;7.80;6.28;;;15.60;99.90;;;;;;5030738;28;20046;-75
2022/07/12 02:07:39;;;;;;;6.40;5.75;;;15.50;99.90;;;;;;5032438;28;20078;-75
2022/07/12 02:10:06;;;;;;;5.75;5.25;;;15.50;99.90;;;;;;5017910;28;20048;-74
2022/07/12 02:12:31;;;;;;;7.03;6.43;;;15.60;99.90;;;;;;5030375;28;20049;-75
2022/07/12 02:14:57;;;;;;;8.30;7.32;;;15.50;99.90;;;;;;5029823;28;20477;-74
2022/07/12 02:17:23;;;;;;;6.53;5.95;;;15.40;99.90;;;;;;5030073;28;20136;-74
2022/07/12 02:19:48;;;;;;;7.35;6.65;;;15.40;99.90;;;;;;5031991;28;20073;-74
2022/07/12 02:22:14;;;;;;;7.22;6.55;;;15.40;99.90;;;;;;5012149;28;20065;-75
2022/07/12 02:24:39;;;;;;;7.40;6.70;;;15.40;99.90;;;;;;5033471;28;20045;-74
2022/07/12 02:27:06;;;;;;;6.80;6.10;;;15.40;99.90;;;;;;5029445;28;20049;-75
2022/07/12 02:29:32;;;;;;;6.47;5.88;;;15.40;99.90;;;;;;5036206;28;20099;-75
2022/07/12 02:31:57;;;;;;;6.53;5.93;;;15.40;99.90;;;;;;5028926;28;20045;-74
2022/07/12 02:34:23;;;;;;;8.25;5.63;;;15.50;99.90;;;;;;5032123;28;20037;-74
2022/07/12 02:36:48;;;;;;;7.78;6.97;;;15.50;99.90;;;;;;5029438;28;20041;-74
2022/07/12 02:39:14;;;;;;;6.60;5.95;;;15.50;99.90;;;;;;5029784;28;20037;-74
2022/07/12 02:41:39;;;;;;;6.82;6.22;;;15.50;99.90;;;;;;5030942;28;20045;-75
2022/07/12 02:44:05;;;;;;;6.75;6.15;;;15.60;99.90;;;;;;5024074;28;20048;-75
2022/07/12 02:46:30;;;;;;;6.78;6.15;;;15.50;99.90;;;;;;5027805;28;20491;-75
2022/07/12 02:48:57;;;;;;;6.10;5.50;;;15.50;99.90;;;;;;5027503;28;20094;-75
2022/07/12 02:51:23;;;;;;;6.55;5.95;;;15.50;99.90;;;;;;5030033;28;20041;-75
2022/07/12 02:53:48;;;;;;;7.55;6.82;;;15.50;99.90;;;;;;5010658;28;20049;-74
2022/07/12 02:56:14;;;;;;;6.25;5.72;;;15.40;99.90;;;;;;5013706;28;20468;-74
2022/07/12 02:58:40;;;;;;;6.57;5.97;;;15.40;99.90;;;;;;5028566;28;20598;-74
2022/07/12 03:01:06;;;;;;;7.13;5.90;;;15.30;99.90;;;;;;5026292;28;20387;-74
2022/07/12 03:03:31;;;;;;;6.93;6.22;;;15.30;99.90;;;;;;5028424;28;20049;-75
2022/07/12 03:05:58;;;;;;;6.47;5.88;;;15.20;99.90;;;;;;5032796;28;20060;-74
2022/07/12 03:08:23;;;;;;;5.85;5.35;;;15.10;99.90;;;;;;5034973;28;20121;-74
2022/07/12 03:10:49;;;;;;;5.85;5.35;;;15.00;99.90;;;;;;5027792;28;20121;-74
2022/07/12 03:13:15;;;;;;;6.00;5.50;;;15.00;99.90;;;;;;5047968;28;20040;-75
2022/07/12 03:15:40;;;;;;;6.43;5.85;;;14.90;99.90;;;;;;5013369;28;20513;-74
2022/07/12 03:18:06;;;;;;;6.40;5.80;;;14.90;99.90;;;;;;5034339;28;20461;-74
2022/07/12 03:20:32;;;;;;;6.40;5.82;;;14.80;99.90;;;;;;5026164;28;20568;-74
2022/07/12 03:22:58;;;;;;;5.80;5.30;;;14.70;99.90;;;;;;5012622;28;20152;-75
2022/07/12 03:25:24;;;;;;;5.68;5.07;;;14.70;99.90;;;;;;5009696;28;20046;-74
2022/07/12 03:27:50;;;;;;;5.13;4.70;;;14.60;99.90;;;;;;5025657;28;20045;-74
2022/07/12 03:30:16;;;;;;;4.72;4.32;;;14.60;99.90;;;;;;5026221;28;20574;-74
2022/07/12 03:32:42;;;;;;;5.32;4.82;;;14.50;99.90;;;;;;5028755;28;20092;-74
2022/07/12 03:35:08;;;;;;;5.13;4.57;;;14.40;99.90;;;;;;5031696;28;20045;-74
2022/07/12 03:37:42;;;;;;;6.00;5.40;;;14.40;99.90;;;;;;5039658;22;20081;-68
2022/07/12 03:40:08;;;;;;;5.28;4.68;;;14.40;99.90;;;;;;5033438;28;20087;-68
2022/07/12 03:42:34;;;;;;;5.78;5.18;;;14.30;99.90;;;;;;5048006;28;20043;-68
2022/07/12 03:45:00;;;;;;;5.32;4.82;;;14.30;99.90;;;;;;5041046;28;20073;-68
2022/07/12 03:47:26;;;;;;;5.88;5.28;;;14.30;99.90;;;;;;5049480;28;20548;-68
2022/07/12 03:49:52;;;;;;;6.78;4.97;;;14.30;99.90;;;;;;5049753;28;20115;-68
2022/07/12 03:52:17;;;;;;;9.48;3.03;;;14.30;99.90;;;;;;5041476;28;20041;-68
2022/07/12 03:54:43;;;;;;;3.33;2.63;;;14.40;99.90;;;;;;5034090;28;20067;-68
2022/07/12 03:57:14;;;;;;;20.02;3.60;;;14.40;99.90;;;;;;5047787;28;20045;-69
2022/07/12 03:59:41;;;;;;;48.30;4.05;;;14.40;99.90;;;;;;5047898;28;20044;-68
2022/07/12 04:02:06;;;;;;;22.23;3.50;;;14.30;99.90;;;;;;5028617;28;20124;-68
2022/07/12 04:04:32;;;;;;;22.02;4.20;;;14.40;99.90;;;;;;5031548;28;20699;-68
2022/07/12 04:06:57;;;;;;;19.10;4.57;;;14.40;99.90;;;;;;5029912;28;20390;-68
2022/07/12 04:09:23;;;;;;;13.55;4.50;;;14.50;99.90;;;;;;5040728;28;20045;-68
2022/07/12 04:11:49;;;;;;;20.23;4.88;;;14.50;99.90;;;;;;5038968;28;20045;-68
2022/07/12 04:14:15;;;;;;;20.70;4.53;;;14.60;99.90;;;;;;5042105;28;20061;-68
2022/07/12 04:16:40;;;;;;;16.48;4.45;;;14.60;99.90;;;;;;5047995;28;20065;-68
2022/07/12 04:19:08;;;;;;;5.18;4.25;;;14.50;99.90;;;;;;5039970;28;20513;-68
2022/07/12 04:21:35;;;;;;;4.60;4.20;;;14.50;99.90;;;;;;5051329;28;20440;-68
2022/07/12 04:24:00;;;;;;;4.38;3.95;;;14.50;99.90;;;;;;5052154;28;20085;-67
2022/07/12 04:26:26;;;;;;;4.85;3.50;;;14.40;99.90;;;;;;5018227;28;20048;-68
2022/07/12 04:28:51;;;;;;;3.40;3.10;;;14.30;99.90;;;;;;5029587;28;20069;-67
2022/07/12 04:31:17;;;;;;;3.80;3.42;;;14.30;99.90;;;;;;5039889;28;20041;-68
2022/07/12 04:33:42;;;;;;;3.97;3.50;;;14.30;99.90;;;;;;5052849;28;20041;-68
2022/07/12 04:36:08;;;;;;;3.50;3.20;;;14.30;99.90;;;;;;5033550;28;20088;-67
2022/07/12 04:38:33;;;;;;;3.10;2.83;;;14.30;99.90;;;;;;5047429;28;20049;-68
2022/07/12 04:40:59;;;;;;;2.80;2.60;;;14.30;99.90;;;;;;5038221;28;20130;-68
2022/07/12 04:43:25;;;;;;;2.90;2.70;;;14.20;99.90;;;;;;5033209;28;20089;-67
2022/07/12 04:45:51;;;;;;;2.70;2.50;;;14.10;99.90;;;;;;5033971;28;20052;-67
2022/07/12 04:48:17;;;;;;;2.38;2.17;;;14.10;99.90;;;;;;5053557;28;20458;-67
2022/07/12 04:50:43;;;;;;;2.53;2.33;;;14.10;99.90;;;;;;5053051;28;20118;-67
2022/07/12 04:53:09;;;;;;;2.70;2.50;;;14.10;99.90;;;;;;5033408;28;20083;-67
2022/07/12 04:55:35;;;;;;;2.88;2.67;;;14.10;99.90;;;;;;5052392;28;20045;-67
2022/07/12 04:58:01;;;;;;;3.25;2.58;;;14.20;99.90;;;;;;5054585;28;20037;-67
2022/07/12 05:00:27;;;;;;;3.63;3.33;;;14.20;99.90;;;;;;5052979;28;20540;-68
2022/07/12 05:02:53;;;;;;;3.25;2.95;;;14.30;99.90;;;;;;5048366;28;20403;-67
2022/07/12 05:05:19;;;;;;;3.97;3.67;;;14.30;99.90;;;;;;5050229;28;20040;-67
2022/07/12 05:07:44;;;;;;;3.65;3.35;;;14.40;99.90;;;;;;5041370;28;20049;-67
2022/07/12 05:10:10;;;;;;;3.72;3.42;;;14.40;99.90;;;;;;5046324;28;20037;-68
2022/07/12 05:12:36;;;;;;;4.95;4.20;;;14.50;99.90;;;;;;5051315;28;20043;-68
2022/07/12 05:15:03;;;;;;;4.20;3.90;;;14.50;99.90;;;;;;5052457;28;20083;-67
2022/07/12 05:17:29;;;;;;;4.30;3.90;;;14.60;99.90;;;;;;5036264;28;20076;-67
2022/07/12 05:19:55;;;;;;;7.13;4.85;;;14.60;99.90;;;;;;5049609;28;20068;-67
2022/07/12 05:22:20;;;;;;;5.28;4.72;;;14.70;99.90;;;;;;5041070;28;20033;-68
2022/07/12 05:24:46;;;;;;;5.63;4.60;;;14.80;99.90;;;;;;5050134;28;20071;-67
2022/07/12 05:27:11;;;;;;;5.50;4.82;;;14.80;99.90;;;;;;5020592;28;20087;-67
2022/07/12 05:29:37;;;;;;;5.57;4.65;;;14.90;99.90;;;;;;5043871;28;20045;-68
2022/07/12 05:32:03;;;;;;;5.88;5.28;;;15.00;99.90;;;;;;5052360;28;20044;-68
2022/07/12 05:34:29;;;;;;;6.38;5.63;;;15.20;99.90;;;;;;5037518;28;20156;-68
2022/07/12 05:36:55;;;;;;;5.88;5.38;;;15.30;99.90;;;;;;5033550;28;20178;-68
2022/07/12 05:39:20;;;;;;;5.50;4.95;;;15.50;99.90;;;;;;4995493;28;20061;-67
2022/07/12 05:41:48;;;;;;;4.93;4.43;;;15.70;99.90;;;;;;5014454;28;20124;-68
2022/07/12 05:44:17;;;;;;;4.20;3.90;;;15.90;99.90;;;;;;5015318;28;20068;-68
2022/07/12 05:46:43;;;;;;;5.05;4.40;;;16.20;99.90;;;;;;5014190;28;20455;-67
2022/07/12 05:49:08;;;;;;;9.60;3.92;;;16.50;99.90;;;;;;5015995;28;20041;-68
2022/07/12 05:54:18;;;;;;;4.47;4.07;;;17.00;99.90;;;;;;5014534;28;20045;-68
2022/07/12 05:56:43;;;;;;;4.60;4.20;;;17.30;99.90;;;;;;5010028;28;20479;-68
2022/07/12 05:59:09;;;;;;;4.72;4.22;;;17.40;99.90;;;;;;4992537;28;20463;-68
2022/07/12 06:01:35;;;;;;;5.88;4.47;;;17.70;99.90;;;;;;4999778;28;20046;-68
2022/07/12 06:04:01;;;;;;;4.75;4.35;;;17.90;99.90;;;;;;5003467;28;20110;-68
2022/07/12 06:06:27;;;;;;;4.68;4.30;;;18.00;99.90;;;;;;5005593;28;20095;-68
2022/07/12 06:08:53;;;;;;;4.50;4.10;;;18.30;99.90;;;;;;5003083;28;20037;-68
2022/07/12 06:11:18;;;;;;;4.85;4.45;;;18.50;99.90;;;;;;5014317;28;20037;-68
2022/07/12 06:13:44;;;;;;;4.47;4.07;;;18.70;99.90;;;;;;5012002;28;20093;-68
2022/07/12 06:16:11;;;;;;;4.88;4.47;;;18.90;99.90;;;;;;5017245;28;20038;-68
2022/07/12 06:18:37;;;;;;;6.00;4.22;;;19.20;99.90;;;;;;5004447;28;20099;-68
2022/07/12 06:21:03;;;;;;;5.07;4.68;;;19.20;99.90;;;;;;5004718;28;20041;-68
2022/07/12 06:23:29;;;;;;;4.22;3.83;;;19.20;99.90;;;;;;4997181;28;20103;-68
2022/07/12 06:25:55;;;;;;;4.32;4.03;;;19.20;99.90;;;;;;4985331;28;20500;-68
2022/07/12 06:28:20;;;;;;;4.85;4.10;;;19.20;99.90;;;;;;4984258;28;20041;-68
2022/07/12 06:30:46;;;;;;;4.10;3.80;;;19.50;99.90;;;;;;5003849;28;20439;-68
2022/07/12 06:33:11;;;;;;;4.68;4.38;;;19.60;99.90;;;;;;4995209;28;20045;-68
2022/07/12 06:35:37;;;;;;;4.50;4.10;;;19.70;99.90;;;;;;5014866;28;20138;-68
2022/07/12 06:38:02;;;;;;;4.65;4.18;;;19.70;99.90;;;;;;5028673;28;20049;-68
2022/07/12 06:40:28;;;;;;;4.20;3.90;;;19.90;99.90;;;;;;5048020;28;20060;-68
2022/07/12 06:42:54;;;;;;;4.38;3.97;;;19.90;99.90;;;;;;5022687;28;20048;-68
2022/07/12 06:45:20;;;;;;;4.22;3.83;;;20.30;99.90;;;;;;5037506;28;20041;-68
2022/07/12 06:47:45;;;;;;;4.22;3.83;;;20.40;99.90;;;;;;5039021;28;20044;-68
2022/07/12 06:50:11;;;;;;;5.25;3.78;;;20.60;99.90;;;;;;5031021;28;20091;-68
2022/07/12 06:52:37;;;;;;;4.78;4.03;;;20.70;99.90;;;;;;5036407;28;20053;-68
2022/07/12 06:55:03;;;;;;;3.97;3.67;;;21.00;99.90;;;;;;5049313;28;20037;-68
2022/07/12 06:57:30;;;;;;;4.00;3.70;;;21.30;99.90;;;;;;5050164;28;20044;-68
2022/07/12 06:59:56;;;;;;;4.22;3.80;;;21.60;99.90;;;;;;5047541;28;20041;-69
2022/07/12 07:02:22;;;;;;;4.07;3.78;;;22.00;99.90;;;;;;5034250;28;20518;-68
2022/07/12 07:04:47;;;;;;;3.95;3.65;;;22.20;99.90;;;;;;5040418;28;20053;-68
2022/07/12 07:07:13;;;;;;;4.28;3.85;;;22.50;99.90;;;;;;5030488;28;20038;-68
2022/07/12 07:09:39;;;;;;;4.43;4.10;;;22.90;99.90;;;;;;5030631;28;20133;-68
2022/07/12 07:12:05;;;;;;;3.53;3.22;;;23.30;99.90;;;;;;5037330;28;20037;-68
2022/07/12 07:14:30;;;;;;;3.42;3.13;;;23.50;99.90;;;;;;5050363;28;20118;-68
2022/07/12 07:16:56;;;;;;;3.42;3.13;;;23.60;99.90;;;;;;5047886;28;20091;-68
2022/07/12 07:19:26;;;;;;;4.05;3.70;;;24.00;99.90;;;;;;5033051;28;20506;-68
2022/07/12 07:21:52;;;;;;;3.78;3.47;;;24.10;99.90;;;;;;5047437;28;20055;-68
2022/07/12 07:24:18;;;;;;;3.45;3.17;;;24.20;99.90;;;;;;5050431;28;20055;-68
2022/07/12 07:26:43;;;;;;;3.47;3.17;;;24.50;99.90;;;;;;5050424;28;20036;-68
2022/07/12 07:31:53;;;;;;;3.45;3.08;;;25.40;99.90;;;;;;5050329;28;20128;-68
2022/07/12 07:34:18;;;;;;;3.42;2.90;;;26.90;96.90;;;;;;5046493;28;20065;-68
2022/07/12 07:36:44;;;;;;;3.47;3.17;;;27.20;98.00;;;;;;5033483;28;20052;-68
2022/07/12 07:39:11;;;;;;;3.00;2.80;;;28.60;96.20;;;;;;5024566;28;20084;-67
2022/07/12 07:41:37;;;;;;;3.47;3.17;;;29.20;93.50;;;;;;5015756;28;20048;-66
2022/07/12 07:44:03;;;;;;;2.35;2.15;;;29.30;92.10;;;;;;5013147;28;20041;-66
2022/07/12 07:46:28;;;;;;;2.35;2.25;;;29.30;91.80;;;;;;5016732;28;20490;-67
2022/07/12 07:48:54;;;;;;;3.00;2.67;;;29.80;91.80;;;;;;4999202;28;20046;-67
2022/07/12 07:51:19;;;;;;;4.57;2.28;;;28.70;92.50;;;;;;5025608;28;20110;-67
2022/07/12 07:53:45;;;;;;;3.25;2.55;;;28.90;92.50;;;;;;5048675;28;20049;-67
2022/07/12 07:56:11;;;;;;;2.85;2.50;;;29.40;92.60;;;;;;5033458;28;20076;-67
2022/07/12 07:58:36;;;;;;;4.07;2.17;;;29.80;92.10;;;;;;5033322;28;20055;-67
2022/07/12 08:01:02;;;;;;;2.60;2.40;;;29.90;92.00;;;;;;5031013;28;20044;-67
2022/07/12 08:03:27;;;;;;;2.55;1.88;;;29.90;91.40;;;;;;5047371;28;20036;-66
2022/07/12 08:05:57;;;;;;;3.28;1.77;;;30.00;90.90;;;;;;5031106;28;20069;-66
2022/07/12 08:08:23;;;;;;;2.13;2.03;;;;;;;;;;5032269;28;20037;-66
2022/07/12 08:10:52;;;;;;;2.30;1.50;;;29.60;90.20;;;;;;5031950;28;20373;-67
2022/07/12 08:13:17;;;;;;;2.15;1.60;;;29.80;91.10;;;;;;5037946;28;20044;-67
2022/07/12 08:15:43;;;;;;;1.90;1.80;;;29.10;91.40;;;;;;5033471;28;20029;-67
2022/07/12 08:18:08;;;;;;;2.08;1.50;;;28.60;91.80;;;;;;5022730;28;20091;-66
2022/07/12 08:20:34;;;;;;;1.80;1.70;;;27.70;92.60;;;;;;5022172;28;20059;-66
2022/07/12 08:23:00;;;;;;;1.63;1.52;;;27.30;93.40;;;;;;5030475;28;20051;-66
2022/07/12 08:25:25;;;;;;;2.00;1.77;;;26.90;93.90;;;;;;5014743;28;20454;-67
2022/07/12 08:27:51;;;;;;;1.95;1.83;;;26.80;93.10;;;;;;5025565;28;20567;-66
2022/07/12 08:30:16;;;;;;;3.25;1.77;;;26.80;92.80;;;;;;5049805;28;20408;-67
2022/07/12 08:32:46;;;;;;;2.88;2.05;;;26.70;93.00;;;;;;5048834;28;20028;-66
2022/07/12 08:35:12;;;;;;;1.70;1.60;;;26.10;94.40;;;;;;5029281;28;20367;-67
2022/07/12 08:37:38;;;;;;;2.00;1.90;;;26.10;95.00;;;;;;5035735;28;20053;-67
2022/07/12 08:40:05;;;;;;;2.22;2.13;;;26.10;94.60;;;;;;5044521;28;20041;-67
2022/07/12 08:42:31;;;;;;;1.67;1.58;;;26.10;94.00;;;;;;5036607;28;20041;-67
2022/07/12 08:44:57;;;;;;;1.83;1.73;;;26.10;94.60;;;;;;5036182;28;20375;-67
2022/07/12 08:47:23;;;;;;;2.35;2.13;;;26.10;95.10;;;;;;5049240;28;20045;-67
2022/07/12 08:50:12;;;;;;;1.80;1.70;;;26.00;95.40;;;;;;5049124;28;20033;-67
2022/07/12 08:52:46;;;;;;;2.45;2.25;;;25.80;96.00;;;;;;5049341;28;20068;-67
2022/07/12 08:55:18;;;;;;;2.30;2.13;;;25.90;95.70;;;;;;5049447;28;20664;-67
2022/07/12 08:57:44;;;;;;;2.58;2.00;;;26.00;94.10;;;;;;5047757;28;20120;-67
2022/07/12 09:00:10;;;;;;;3.05;2.40;;;25.90;94.90;;;;;;5049097;28;20136;-67
2022/07/12 09:02:53;;;;;;;2.10;1.75;;;25.90;95.70;;;;;;5049371;28;20048;-67
2022/07/12 09:05:21;;;;;;;3.10;1.98;;;25.90;96.40;;;;;;5036010;28;20063;-67
2022/07/12 09:07:48;;;;;;;2.55;2.35;;;26.00;96.30;;;;;;5050510;28;20134;-67
2022/07/12 09:10:14;;;;;;;2.40;2.20;;;26.00;94.70;;;;;;5052658;28;20045;-67
2022/07/12 09:12:41;;;;;;;3.20;2.90;;;25.90;95.80;;;;;;5052826;28;20079;-67
2022/07/12 09:15:21;;;;;;;3.03;2.83;;;25.90;95.40;;;;;;5048950;28;20049;-67
2022/07/12 09:17:57;;;;;;;3.65;3.35;;;25.90;95.90;;;;;;5035443;28;20045;-67
2022/07/12 09:20:34;;;;;;;3.30;3.10;;;25.90;94.90;;;;;;5042517;28;20095;-67
2022/07/12 09:23:02;;;;;;;4.35;2.33;;;26.00;94.10;;;;;;5047298;28;20070;-68
2022/07/12 09:25:28;;;;;;;4.85;4.22;;;26.10;94.50;;;;;;5052707;28;20063;-68
2022/07/12 09:27:57;;;;;;;4.20;3.35;;;26.00;94.70;;;;;;5037508;28;20784;-68
2022/07/12 09:30:25;;;;;;;3.42;3.20;;;26.10;94.50;;;;;;5051022;28;20047;-67
2022/07/12 09:38:27;;;;;;;3.00;2.80;;;26.10;95.80;;;;;;5046642;28;20081;-67
2022/07/12 09:40:55;;;;;;;2.38;2.15;;;26.30;95.10;;;;;;5046157;28;20053;-67
2022/07/12 09:43:22;;;;;;;2.70;2.50;;;26.30;95.10;;;;;;5042839;28;20740;-67
2022/07/12 09:45:48;;;;;;;3.88;3.08;;;26.40;95.00;;;;;;5045531;28;20402;-67
2022/07/12 09:48:15;;;;;;;2.95;2.75;;;26.20;94.90;;;;;;5052846;28;20052;-67
2022/07/12 09:50:45;;;;;;;2.72;2.53;;;26.20;94.80;;;;;;5050830;28;20045;-67
2022/07/12 09:53:16;;;;;;;2.30;2.10;;;26.20;95.50;;;;;;5050947;28;20122;-67
2022/07/12 09:55:43;;;;;;;2.50;2.28;;;26.20;95.70;;;;;;5051487;28;20056;-67
2022/07/12 09:58:12;;;;;;;2.72;2.40;;;26.30;94.30;;;;;;5035469;28;20053;-67
2022/07/12 10:00:38;;;;;;;2.30;2.08;;;26.30;94.20;;;;;;5034141;28;20124;-68
2022/07/12 10:03:05;;;;;;;2.95;2.42;;;26.30;94.70;;;;;;5041135;28;20407;-67
2022/07/12 10:05:33;;;;;;;2.65;2.45;;;26.30;95.00;;;;;;5031121;28;20060;-68
2022/07/12 10:07:58;;;;;;;3.08;2.88;;;26.30;94.80;;;;;;5043974;28;20179;-68
2022/07/12 10:10:24;;;;;;;2.83;2.10;;;26.30;94.80;;;;;;5049924;28;20140;-68
2022/07/12 10:12:51;;;;;;;3.00;2.80;;;26.30;93.60;;;;;;5050865;28;20036;-67
2022/07/12 10:15:20;;;;;;;2.75;2.55;;;26.40;94.50;;;;;;5050197;28;20044;-68
2022/07/12 10:17:54;;;;;;;2.80;2.05;;;26.20;95.20;;;;;;5050605;28;20045;-67
2022/07/12 10:20:26;;;;;;;21.02;4.05;;;26.60;93.90;;;;;;5052265;28;20426;-67
2022/07/12 10:23:15;;;;;;;3.00;1.95;;;26.60;93.90;;;;;;5034496;28;20041;-68
2022/07/12 10:25:41;;;;;;;1.30;1.20;;;26.70;92.90;;;;;;5050562;28;20090;-67
2022/07/12 10:28:07;;;;;;;2.08;1.10;;;26.80;92.00;;;;;;5034460;28;20375;-67
2022/07/12 10:30:43;;;;;;;1.38;1.20;;;26.90;92.20;;;;;;5034412;28;20091;-67
2022/07/12 10:33:20;;;;;;;2.00;1.90;;;27.00;93.50;;;;;;5051393;28;20076;-67
2022/07/12 10:36:02;;;;;;;1.40;1.27;;;27.00;92.10;;;;;;5039570;28;20387;-67
2022/07/12 10:38:29;;;;;;;1.00;1.00;;;27.20;92.20;;;;;;5051041;28;20133;-67
2022/07/12 10:40:54;;;;;;;0.80;0.80;;;27.00;92.40;;;;;;5035256;28;20057;-68
2022/07/12 10:46:19;;;;;;;1.60;0.80;;;27.00;91.50;;;;;;5038063;28;20041;-67
2022/07/12 10:48:45;;;;;;;1.98;1.00;;;27.10;91.80;;;;;;5033144;28;20045;-68
2022/07/12 10:51:16;;;;;;;2.65;1.15;;;27.30;91.80;;;;;;5047545;28;20041;-67
2022/07/12 10:53:44;;;;;;;1.77;0.63;;;27.20;91.20;;;;;;5039064;28;20090;-67
2022/07/12 10:56:15;;;;;;;0.80;0.77;;;27.20;91.80;;;;;;5050762;28;20045;-68
2022/07/12 10:58:44;;;;;;;;;;;27.30;91.60;;;;;;5037553;28;20120;-67
2022/07/12 11:01:15;;;;;;;2.30;1.00;;;27.40;91.40;;;;;;5043621;28;19921;-67
2022/07/12 11:03:50;;;;;;;1.60;0.88;;;27.40;91.00;;;;;;5034414;28;20037;-67
2022/07/12 11:08:48;;;;;;;1.75;1.00;;;27.30;92.00;;;;;;5034134;28;20440;-70
2022/07/12 11:11:13;;;;;;;1.38;1.10;;;27.50;91.60;;;;;;5012245;28;20479;-70
2022/07/12 11:13:39;;;;;;;4.10;1.65;;;27.70;91.90;;;;;;5011046;28;20057;-70
2022/07/12 11:16:05;;;;;;;1.35;0.85;;;27.80;91.90;;;;;;5016516;28;20045;-70
2022/07/12 11:18:32;;;;;;;1.27;0.80;;;27.90;91.90;;;;;;5013469;28;20037;-70
2022/07/12 11:20:58;;;;;;;1.05;0.70;;;28.00;90.90;;;;;;5010652;28;20717;-70
2022/07/12 11:23:26;;;;;;;4.20;0.88;;;27.90;91.00;;;;;;5013533;28;20198;-71
2022/07/12 11:25:56;;;;;;;2.85;0.80;;;27.90;90.30;;;;;;5017026;28;20073;-70
2022/07/12 11:28:23;;;;;;;1.15;0.68;;;27.90;90.50;;;;;;5003276;28;20467;-70
2022/07/12 11:30:53;;;;;;;0.80;0.80;;;27.80;91.10;;;;;;5008698;28;20037;-70
2022/07/12 11:33:25;;;;;;;1.23;0.80;;;27.70;91.30;;;;;;5013018;28;20041;-70
2022/07/12 11:35:52;;;;;;;2.30;0.80;;;27.70;91.70;;;;;;5012601;28;20052;-70
2022/07/12 11:38:27;;;;;;;1.30;0.82;;;27.70;92.60;;;;;;5013598;28;20084;-70
2022/07/12 11:41:01;;;;;;;0.90;0.80;;;27.80;92.60;;;;;;5015145;28;20045;-70
2022/07/12 11:43:27;;;;;;;1.60;0.90;;;27.80;91.70;;;;;;4997967;28;20542;-70
2022/07/12 11:45:54;;;;;;;2.63;0.70;;;27.90;90.50;;;;;;5031251;28;20053;-71
2022/07/12 11:48:20;;;;;;;0.70;0.68;;;27.80;90.60;;;;;;5010037;28;20391;-71
2022/07/12 11:50:49;;;;;;;1.83;0.80;;;27.70;90.70;;;;;;5010892;28;20037;-69
2022/07/12 11:53:23;;;;;;;1.92;1.02;;;27.70;91.00;;;;;;5007101;28;20033;-69
2022/07/12 11:55:50;;;;;;;0.80;0.80;;;27.90;91.20;;;;;;5009414;28;20276;-69
2022/07/12 11:58:17;;;;;;;1.02;0.93;;;28.00;90.30;;;;;;5027593;28;20056;-69
2022/07/12 12:00:46;;;;;;;1.27;0.50;;;28.10;90.10;;;;;;5006369;28;20029;-69
2022/07/12 12:03:13;;;;;;;0.82;0.50;;;28.20;90.00;;;;;;5027658;28;20037;-69
2022/07/12 12:05:39;;;;;;;1.75;0.80;;;28.30;90.40;;;;;;5006125;28;20136;-69
2022/07/12 12:08:12;;;;;;;2.33;0.80;;;28.40;89.30;;;;;;5007303;28;20049;-69
2022/07/12 12:10:40;;;;;;;0.63;0.50;;;28.50;89.90;;;;;;5011623;28;20045;-69
2022/07/12 12:13:18;;;;;;;0.60;0.60;;;28.50;90.30;;;;;;5013203;28;20033;-69
2022/07/12 12:16:10;;;;;;;0.75;0.75;;;28.60;88.80;;;;;;5003012;28;20045;-69
2022/07/12 12:18:40;;;;;;;1.40;0.60;;;28.60;87.10;;;;;;5004152;28;20144;-69
2022/07/12 12:21:12;;;;;;;1.33;0.57;;;28.60;88.20;;;;;;5013142;28;20041;-69
2022/07/12 12:23:38;;;;;;;;;;;28.40;87.00;;;;;;5013651;28;20033;-69
2022/07/12 12:26:17;;;;;;;2.60;0.63;;;28.50;88.60;;;;;;5010967;28;19921;-69
2022/07/12 12:28:48;;;;;;;0.60;0.40;;;28.70;85.90;;;;;;4993417;28;20168;-69
2022/07/12 12:31:15;;;;;;;0.60;0.50;;;28.70;85.80;;;;;;5011093;28;20050;-69
2022/07/12 12:33:43;;;;;;;0.98;0.50;;;28.70;85.60;;;;;;5012179;28;20048;-69
2022/07/12 12:36:26;;;;;;;1.48;0.60;;;28.70;85.60;;;;;;5009508;28;20053;-68
2022/07/12 12:39:00;;;;;;;0.55;0.55;;;28.70;84.20;;;;;;4996489;28;20072;-69
2022/07/12 12:41:27;;;;;;;1.70;0.60;;;28.50;85.70;;;;;;4994896;28;20084;-69
2022/07/12 12:44:09;;;;;;;1.95;0.47;;;28.50;86.30;;;;;;5013659;28;20045;-69
2022/07/12 12:46:55;;;;;;;3.38;0.70;;;28.40;85.30;;;;;;5006552;28;20132;-69
2022/07/12 12:49:50;;;;;;;0.55;0.50;;;28.40;86.10;;;;;;5016084;28;20033;-69
2022/07/12 12:52:17;;;;;;;0.90;0.50;;;28.40;83.60;;;;;;4999564;28;20189;-69
2022/07/12 12:54:44;;;;;;;0.70;0.55;;;28.40;84.60;;;;;;5016559;28;20071;-69
2022/07/12 12:57:11;;;;;;;1.25;0.50;;;28.50;85.90;;;;;;5034306;28;20045;-69
2022/07/12 12:59:37;;;;;;;2.95;0.68;;;28.60;82.70;;;;;;5016486;28;20051;-68
2022/07/12 13:02:05;;;;;;;0.80;0.68;;;28.60;83.50;;;;;;5016428;28;20461;-69
2022/07/12 13:04:32;;;;;;;1.02;0.60;;;28.70;84.90;;;;;;4994646;28;20096;-69